sensor_id;sensor_type;location;lat;lon;timestamp;P1;durP1;ratioP1;P2;durP2;ratioP2
77495;SDS011;66600;48.378;9.948;2023-05-07T00:02:20;4.57;;;3.65;;
77495;SDS011;66600;48.378;9.948;2023-05-07T00:04:45;5.78;;;3.83;;
77495;SDS011;66600;48.378;9.948;2023-05-07T00:07:11;4.70;;;3.80;;
77495;SDS011;66600;48.378;9.948;2023-05-07T00:09:36;4.97;;;3.78;;
77495;SDS011;66600;48.378;9.948;2023-05-07T00:12:01;5.45;;;3.80;;
77495;SDS011;66600;48.378;9.948;2023-05-07T00:14:27;5.60;;;3.83;;
77495;SDS011;66600;48.378;9.948;2023-05-07T00:16:52;7.57;;;3.80;;
77495;SDS011;66600;48.378;9.948;2023-05-07T00:19:17;7.05;;;4.03;;
77495;SDS011;66600;48.378;9.948;2023-05-07T00:21:43;6.95;;;4.30;;
77495;SDS011;66600;48.378;9.948;2023-05-07T00:24:08;6.88;;;4.10;;
77495;SDS011;66600;48.378;9.948;2023-05-07T00:26:33;7.30;;;3.97;;
77495;SDS011;66600;48.378;9.948;2023-05-07T00:28:59;5.03;;;4.30;;
77495;SDS011;66600;48.378;9.948;2023-05-07T00:31:24;8.20;;;4.32;;
77495;SDS011;66600;48.378;9.948;2023-05-07T00:33:49;7.50;;;4.20;;
77495;SDS011;66600;48.378;9.948;2023-05-07T00:36:15;8.13;;;4.68;;
77495;SDS011;66600;48.378;9.948;2023-05-07T00:38:40;5.20;;;3.95;;
77495;SDS011;66600;48.378;9.948;2023-05-07T00:41:05;5.35;;;4.20;;
77495;SDS011;66600;48.378;9.948;2023-05-07T00:43:31;6.05;;;4.20;;
77495;SDS011;66600;48.378;9.948;2023-05-07T00:45:57;8.45;;;4.55;;
77495;SDS011;66600;48.378;9.948;2023-05-07T00:48:22;6.35;;;4.80;;
77495;SDS011;66600;48.378;9.948;2023-05-07T00:50:49;6.78;;;4.78;;
77495;SDS011;66600;48.378;9.948;2023-05-07T00:53:14;7.68;;;4.63;;
77495;SDS011;66600;48.378;9.948;2023-05-07T00:55:40;6.78;;;5.25;;
77495;SDS011;66600;48.378;9.948;2023-05-07T00:58:05;5.68;;;4.80;;
77495;SDS011;66600;48.378;9.948;2023-05-07T01:00:31;6.07;;;4.90;;
77495;SDS011;66600;48.378;9.948;2023-05-07T01:02:57;8.00;;;4.78;;
77495;SDS011;66600;48.378;9.948;2023-05-07T01:05:23;6.18;;;4.55;;
77495;SDS011;66600;48.378;9.948;2023-05-07T01:07:50;7.28;;;4.78;;
77495;SDS011;66600;48.378;9.948;2023-05-07T01:10:18;8.87;;;4.80;;
77495;SDS011;66600;48.378;9.948;2023-05-07T01:12:44;6.63;;;4.57;;
77495;SDS011;66600;48.378;9.948;2023-05-07T01:15:10;7.47;;;5.00;;
77495;SDS011;66600;48.378;9.948;2023-05-07T01:17:36;6.53;;;5.05;;
77495;SDS011;66600;48.378;9.948;2023-05-07T01:20:03;8.00;;;5.22;;
77495;SDS011;66600;48.378;9.948;2023-05-07T01:22:33;8.38;;;5.40;;
77495;SDS011;66600;48.378;9.948;2023-05-07T01:25:01;7.93;;;4.75;;
77495;SDS011;66600;48.378;9.948;2023-05-07T01:27:27;6.75;;;4.93;;
77495;SDS011;66600;48.378;9.948;2023-05-07T01:29:52;7.20;;;4.82;;
77495;SDS011;66600;48.378;9.948;2023-05-07T01:32:28;7.25;;;5.00;;
77495;SDS011;66600;48.378;9.948;2023-05-07T01:34:57;7.65;;;5.10;;
77495;SDS011;66600;48.378;9.948;2023-05-07T01:37:23;7.15;;;4.80;;
77495;SDS011;66600;48.378;9.948;2023-05-07T01:39:49;6.57;;;4.97;;
77495;SDS011;66600;48.378;9.948;2023-05-07T01:42:15;7.97;;;4.70;;
77495;SDS011;66600;48.378;9.948;2023-05-07T01:44:40;6.95;;;5.25;;
77495;SDS011;66600;48.378;9.948;2023-05-07T01:47:06;8.77;;;5.47;;
77495;SDS011;66600;48.378;9.948;2023-05-07T01:49:32;8.55;;;5.30;;
77495;SDS011;66600;48.378;9.948;2023-05-07T01:51:57;8.13;;;5.22;;
77495;SDS011;66600;48.378;9.948;2023-05-07T01:54:26;6.15;;;5.13;;
77495;SDS011;66600;48.378;9.948;2023-05-07T01:56:58;8.85;;;5.25;;
77495;SDS011;66600;48.378;9.948;2023-05-07T01:59:24;6.53;;;5.03;;
77495;SDS011;66600;48.378;9.948;2023-05-07T02:01:50;6.43;;;5.07;;
77495;SDS011;66600;48.378;9.948;2023-05-07T02:04:15;7.60;;;5.10;;
77495;SDS011;66600;48.378;9.948;2023-05-07T02:06:40;6.50;;;4.82;;
77495;SDS011;66600;48.378;9.948;2023-05-07T02:09:06;7.85;;;5.20;;
77495;SDS011;66600;48.378;9.948;2023-05-07T02:11:31;7.63;;;5.72;;
77495;SDS011;66600;48.378;9.948;2023-05-07T02:13:56;9.13;;;5.88;;
77495;SDS011;66600;48.378;9.948;2023-05-07T02:16:22;7.55;;;5.60;;
77495;SDS011;66600;48.378;9.948;2023-05-07T02:18:48;7.57;;;5.50;;
77495;SDS011;66600;48.378;9.948;2023-05-07T02:21:14;7.07;;;5.38;;
77495;SDS011;66600;48.378;9.948;2023-05-07T02:23:39;8.73;;;5.22;;
77495;SDS011;66600;48.378;9.948;2023-05-07T02:26:04;6.85;;;5.07;;
77495;SDS011;66600;48.378;9.948;2023-05-07T02:28:30;8.65;;;5.40;;
77495;SDS011;66600;48.378;9.948;2023-05-07T02:30:55;8.98;;;6.05;;
77495;SDS011;66600;48.378;9.948;2023-05-07T02:33:20;10.27;;;6.15;;
77495;SDS011;66600;48.378;9.948;2023-05-07T02:35:46;7.75;;;5.40;;
77495;SDS011;66600;48.378;9.948;2023-05-07T02:38:11;7.85;;;5.75;;
77495;SDS011;66600;48.378;9.948;2023-05-07T02:40:36;9.43;;;5.88;;
77495;SDS011;66600;48.378;9.948;2023-05-07T02:43:05;8.53;;;5.43;;
77495;SDS011;66600;48.378;9.948;2023-05-07T02:45:31;9.82;;;6.03;;
77495;SDS011;66600;48.378;9.948;2023-05-07T02:47:57;7.43;;;5.35;;
77495;SDS011;66600;48.378;9.948;2023-05-07T02:50:23;8.20;;;5.88;;
77495;SDS011;66600;48.378;9.948;2023-05-07T02:52:48;9.50;;;6.22;;
77495;SDS011;66600;48.378;9.948;2023-05-07T02:55:13;8.38;;;6.05;;
77495;SDS011;66600;48.378;9.948;2023-05-07T02:57:39;8.73;;;6.03;;
77495;SDS011;66600;48.378;9.948;2023-05-07T03:00:37;9.60;;;5.88;;
77495;SDS011;66600;48.378;9.948;2023-05-07T03:02:56;9.23;;;5.85;;
77495;SDS011;66600;48.378;9.948;2023-05-07T03:05:21;8.50;;;5.75;;
77495;SDS011;66600;48.378;9.948;2023-05-07T03:07:47;8.75;;;5.88;;
77495;SDS011;66600;48.378;9.948;2023-05-07T03:10:12;7.85;;;5.63;;
77495;SDS011;66600;48.378;9.948;2023-05-07T03:12:37;8.45;;;6.15;;
77495;SDS011;66600;48.378;9.948;2023-05-07T03:15:03;8.45;;;5.88;;
77495;SDS011;66600;48.378;9.948;2023-05-07T03:17:28;9.60;;;6.07;;
77495;SDS011;66600;48.378;9.948;2023-05-07T03:19:54;9.93;;;6.72;;
77495;SDS011;66600;48.378;9.948;2023-05-07T03:22:19;7.47;;;6.07;;
77495;SDS011;66600;48.378;9.948;2023-05-07T03:24:45;8.00;;;6.20;;
77495;SDS011;66600;48.378;9.948;2023-05-07T03:27:10;10.85;;;6.07;;
77495;SDS011;66600;48.378;9.948;2023-05-07T03:29:36;8.40;;;6.25;;
77495;SDS011;66600;48.378;9.948;2023-05-07T03:32:01;9.95;;;5.78;;
77495;SDS011;66600;48.378;9.948;2023-05-07T03:34:26;8.95;;;6.20;;
77495;SDS011;66600;48.378;9.948;2023-05-07T03:36:51;10.93;;;6.05;;
77495;SDS011;66600;48.378;9.948;2023-05-07T03:39:17;10.20;;;6.22;;
77495;SDS011;66600;48.378;9.948;2023-05-07T03:41:42;9.10;;;6.03;;
77495;SDS011;66600;48.378;9.948;2023-05-07T03:44:07;10.57;;;6.20;;
77495;SDS011;66600;48.378;9.948;2023-05-07T03:46:33;8.75;;;6.03;;
77495;SDS011;66600;48.378;9.948;2023-05-07T03:48:59;10.05;;;6.40;;
77495;SDS011;66600;48.378;9.948;2023-05-07T03:51:25;8.68;;;6.10;;
77495;SDS011;66600;48.378;9.948;2023-05-07T03:53:50;10.90;;;6.45;;
77495;SDS011;66600;48.378;9.948;2023-05-07T03:56:17;10.70;;;6.40;;
77495;SDS011;66600;48.378;9.948;2023-05-07T03:58:43;10.23;;;7.20;;
77495;SDS011;66600;48.378;9.948;2023-05-07T04:01:09;10.73;;;7.55;;
77495;SDS011;66600;48.378;9.948;2023-05-07T04:03:34;9.38;;;7.00;;
77495;SDS011;66600;48.378;9.948;2023-05-07T04:06:00;9.60;;;6.63;;
77495;SDS011;66600;48.378;9.948;2023-05-07T04:08:25;10.32;;;6.80;;
77495;SDS011;66600;48.378;9.948;2023-05-07T04:10:54;10.02;;;6.25;;
77495;SDS011;66600;48.378;9.948;2023-05-07T04:13:20;9.07;;;6.38;;
77495;SDS011;66600;48.378;9.948;2023-05-07T04:15:45;10.93;;;6.43;;
77495;SDS011;66600;48.378;9.948;2023-05-07T04:18:11;8.95;;;6.53;;
77495;SDS011;66600;48.378;9.948;2023-05-07T04:20:36;9.40;;;5.97;;
77495;SDS011;66600;48.378;9.948;2023-05-07T04:23:02;9.68;;;6.13;;
77495;SDS011;66600;48.378;9.948;2023-05-07T04:25:27;9.75;;;6.78;;
77495;SDS011;66600;48.378;9.948;2023-05-07T04:27:52;9.52;;;6.47;;
77495;SDS011;66600;48.378;9.948;2023-05-07T04:30:18;8.00;;;5.85;;
77495;SDS011;66600;48.378;9.948;2023-05-07T04:32:43;9.15;;;6.57;;
77495;SDS011;66600;48.378;9.948;2023-05-07T04:35:09;9.75;;;6.78;;
77495;SDS011;66600;48.378;9.948;2023-05-07T04:37:34;9.60;;;6.28;;
77495;SDS011;66600;48.378;9.948;2023-05-07T04:40:00;9.35;;;6.25;;
77495;SDS011;66600;48.378;9.948;2023-05-07T04:42:26;8.18;;;5.68;;
77495;SDS011;66600;48.378;9.948;2023-05-07T04:44:52;9.20;;;6.32;;
77495;SDS011;66600;48.378;9.948;2023-05-07T04:47:18;10.00;;;6.63;;
77495;SDS011;66600;48.378;9.948;2023-05-07T04:49:43;7.97;;;6.22;;
77495;SDS011;66600;48.378;9.948;2023-05-07T04:52:09;10.27;;;6.85;;
77495;SDS011;66600;48.378;9.948;2023-05-07T04:54:34;9.18;;;6.40;;
77495;SDS011;66600;48.378;9.948;2023-05-07T04:57:00;8.82;;;6.90;;
77495;SDS011;66600;48.378;9.948;2023-05-07T04:59:25;10.00;;;6.07;;
77495;SDS011;66600;48.378;9.948;2023-05-07T05:01:50;9.05;;;6.25;;
77495;SDS011;66600;48.378;9.948;2023-05-07T05:04:16;7.82;;;6.05;;
77495;SDS011;66600;48.378;9.948;2023-05-07T05:06:42;8.60;;;6.40;;
77495;SDS011;66600;48.378;9.948;2023-05-07T05:09:07;10.00;;;6.00;;
77495;SDS011;66600;48.378;9.948;2023-05-07T05:11:33;8.45;;;6.30;;
77495;SDS011;66600;48.378;9.948;2023-05-07T05:13:59;8.32;;;6.65;;
77495;SDS011;66600;48.378;9.948;2023-05-07T05:16:25;7.38;;;6.10;;
77495;SDS011;66600;48.378;9.948;2023-05-07T05:18:50;8.95;;;6.30;;
77495;SDS011;66600;48.378;9.948;2023-05-07T05:21:17;8.90;;;6.35;;
77495;SDS011;66600;48.378;9.948;2023-05-07T05:23:42;10.43;;;6.95;;
77495;SDS011;66600;48.378;9.948;2023-05-07T05:26:08;9.48;;;6.38;;
77495;SDS011;66600;48.378;9.948;2023-05-07T05:28:33;7.85;;;5.80;;
77495;SDS011;66600;48.378;9.948;2023-05-07T05:30:58;7.82;;;5.95;;
77495;SDS011;66600;48.378;9.948;2023-05-07T05:33:24;11.20;;;7.13;;
77495;SDS011;66600;48.378;9.948;2023-05-07T05:35:49;9.43;;;6.90;;
77495;SDS011;66600;48.378;9.948;2023-05-07T05:38:15;9.48;;;6.82;;
77495;SDS011;66600;48.378;9.948;2023-05-07T05:40:40;8.15;;;6.03;;
77495;SDS011;66600;48.378;9.948;2023-05-07T05:43:06;10.07;;;6.40;;
77495;SDS011;66600;48.378;9.948;2023-05-07T05:45:31;9.65;;;5.97;;
77495;SDS011;66600;48.378;9.948;2023-05-07T05:47:56;9.60;;;6.85;;
77495;SDS011;66600;48.378;9.948;2023-05-07T05:50:22;8.35;;;6.40;;
77495;SDS011;66600;48.378;9.948;2023-05-07T05:52:47;7.80;;;6.15;;
77495;SDS011;66600;48.378;9.948;2023-05-07T05:55:13;8.30;;;5.82;;
77495;SDS011;66600;48.378;9.948;2023-05-07T05:57:39;7.93;;;5.97;;
77495;SDS011;66600;48.378;9.948;2023-05-07T06:00:05;8.18;;;6.15;;
77495;SDS011;66600;48.378;9.948;2023-05-07T06:02:31;8.50;;;5.43;;
77495;SDS011;66600;48.378;9.948;2023-05-07T06:04:56;9.07;;;6.05;;
77495;SDS011;66600;48.378;9.948;2023-05-07T06:07:22;8.75;;;5.97;;
77495;SDS011;66600;48.378;9.948;2023-05-07T06:09:47;9.55;;;6.47;;
77495;SDS011;66600;48.378;9.948;2023-05-07T06:12:12;8.27;;;6.40;;
77495;SDS011;66600;48.378;9.948;2023-05-07T06:14:37;8.27;;;5.95;;
77495;SDS011;66600;48.378;9.948;2023-05-07T06:17:03;7.03;;;5.43;;
77495;SDS011;66600;48.378;9.948;2023-05-07T06:19:28;9.38;;;6.03;;
77495;SDS011;66600;48.378;9.948;2023-05-07T06:21:54;7.82;;;6.10;;
77495;SDS011;66600;48.378;9.948;2023-05-07T06:24:21;9.50;;;6.50;;
77495;SDS011;66600;48.378;9.948;2023-05-07T06:26:46;8.23;;;6.30;;
77495;SDS011;66600;48.378;9.948;2023-05-07T06:29:12;10.32;;;6.47;;
77495;SDS011;66600;48.378;9.948;2023-05-07T06:31:37;7.53;;;6.00;;
77495;SDS011;66600;48.378;9.948;2023-05-07T06:34:02;8.60;;;5.78;;
77495;SDS011;66600;48.378;9.948;2023-05-07T06:36:28;9.32;;;6.30;;
77495;SDS011;66600;48.378;9.948;2023-05-07T06:38:53;8.18;;;6.63;;
77495;SDS011;66600;48.378;9.948;2023-05-07T06:41:18;9.10;;;6.40;;
77495;SDS011;66600;48.378;9.948;2023-05-07T06:43:45;6.88;;;6.00;;
77495;SDS011;66600;48.378;9.948;2023-05-07T06:46:10;8.85;;;6.35;;
77495;SDS011;66600;48.378;9.948;2023-05-07T06:48:35;8.02;;;5.93;;
77495;SDS011;66600;48.378;9.948;2023-05-07T06:51:01;8.93;;;6.20;;
77495;SDS011;66600;48.378;9.948;2023-05-07T06:53:26;10.88;;;8.40;;
77495;SDS011;66600;48.378;9.948;2023-05-07T06:55:53;11.32;;;6.82;;
77495;SDS011;66600;48.378;9.948;2023-05-07T06:58:18;8.75;;;6.10;;
77495;SDS011;66600;48.378;9.948;2023-05-07T07:00:44;8.35;;;6.05;;
77495;SDS011;66600;48.378;9.948;2023-05-07T07:03:10;9.18;;;6.00;;
77495;SDS011;66600;48.378;9.948;2023-05-07T07:05:36;7.70;;;6.15;;
77495;SDS011;66600;48.378;9.948;2023-05-07T07:08:01;9.75;;;6.53;;
77495;SDS011;66600;48.378;9.948;2023-05-07T07:10:26;8.30;;;6.10;;
77495;SDS011;66600;48.378;9.948;2023-05-07T07:12:52;7.32;;;6.00;;
77495;SDS011;66600;48.378;9.948;2023-05-07T07:15:19;7.78;;;5.82;;
77495;SDS011;66600;48.378;9.948;2023-05-07T07:17:45;8.10;;;5.95;;
77495;SDS011;66600;48.378;9.948;2023-05-07T07:20:11;7.10;;;5.53;;
77495;SDS011;66600;48.378;9.948;2023-05-07T07:22:36;7.70;;;5.78;;
77495;SDS011;66600;48.378;9.948;2023-05-07T07:25:01;6.45;;;5.10;;
77495;SDS011;66600;48.378;9.948;2023-05-07T07:27:27;8.07;;;6.15;;
77495;SDS011;66600;48.378;9.948;2023-05-07T07:29:52;7.63;;;6.20;;
77495;SDS011;66600;48.378;9.948;2023-05-07T07:32:17;8.07;;;5.88;;
77495;SDS011;66600;48.378;9.948;2023-05-07T07:34:43;8.75;;;6.35;;
77495;SDS011;66600;48.378;9.948;2023-05-07T07:37:08;7.75;;;5.50;;
77495;SDS011;66600;48.378;9.948;2023-05-07T07:39:33;10.07;;;6.75;;
77495;SDS011;66600;48.378;9.948;2023-05-07T07:41:59;8.20;;;6.38;;
77495;SDS011;66600;48.378;9.948;2023-05-07T07:44:25;7.43;;;5.90;;
77495;SDS011;66600;48.378;9.948;2023-05-07T07:46:50;8.52;;;6.35;;
77495;SDS011;66600;48.378;9.948;2023-05-07T07:49:16;8.27;;;5.80;;
77495;SDS011;66600;48.378;9.948;2023-05-07T07:51:41;7.68;;;6.10;;
77495;SDS011;66600;48.378;9.948;2023-05-07T07:54:06;7.35;;;6.43;;
77495;SDS011;66600;48.378;9.948;2023-05-07T07:56:32;10.10;;;6.03;;
77495;SDS011;66600;48.378;9.948;2023-05-07T07:58:58;7.95;;;5.65;;
77495;SDS011;66600;48.378;9.948;2023-05-07T08:01:24;7.40;;;5.97;;
77495;SDS011;66600;48.378;9.948;2023-05-07T08:03:49;8.98;;;6.03;;
77495;SDS011;66600;48.378;9.948;2023-05-07T08:06:15;9.30;;;6.30;;
77495;SDS011;66600;48.378;9.948;2023-05-07T08:08:40;7.93;;;6.07;;
77495;SDS011;66600;48.378;9.948;2023-05-07T08:11:05;7.18;;;6.05;;
77495;SDS011;66600;48.378;9.948;2023-05-07T08:13:31;8.20;;;6.40;;
77495;SDS011;66600;48.378;9.948;2023-05-07T08:15:56;8.18;;;6.95;;
77495;SDS011;66600;48.378;9.948;2023-05-07T08:18:22;8.02;;;6.28;;
77495;SDS011;66600;48.378;9.948;2023-05-07T08:20:49;7.82;;;6.15;;
77495;SDS011;66600;48.378;9.948;2023-05-07T08:23:15;9.02;;;7.15;;
77495;SDS011;66600;48.378;9.948;2023-05-07T08:25:40;11.68;;;7.88;;
77495;SDS011;66600;48.378;9.948;2023-05-07T08:28:07;9.85;;;6.60;;
77495;SDS011;66600;48.378;9.948;2023-05-07T08:30:32;8.65;;;6.40;;
77495;SDS011;66600;48.378;9.948;2023-05-07T08:32:58;8.00;;;5.97;;
77495;SDS011;66600;48.378;9.948;2023-05-07T08:35:26;8.75;;;6.45;;
77495;SDS011;66600;48.378;9.948;2023-05-07T08:37:52;8.82;;;6.60;;
77495;SDS011;66600;48.378;9.948;2023-05-07T08:40:18;7.28;;;6.07;;
77495;SDS011;66600;48.378;9.948;2023-05-07T08:42:43;7.93;;;6.07;;
77495;SDS011;66600;48.378;9.948;2023-05-07T08:45:09;10.48;;;6.65;;
77495;SDS011;66600;48.378;9.948;2023-05-07T08:47:40;7.53;;;5.90;;
77495;SDS011;66600;48.378;9.948;2023-05-07T08:50:09;7.80;;;5.65;;
77495;SDS011;66600;48.378;9.948;2023-05-07T08:52:35;7.85;;;6.03;;
77495;SDS011;66600;48.378;9.948;2023-05-07T08:55:02;8.23;;;6.18;;
77495;SDS011;66600;48.378;9.948;2023-05-07T08:57:28;7.28;;;6.15;;
77495;SDS011;66600;48.378;9.948;2023-05-07T08:59:53;8.20;;;6.45;;
77495;SDS011;66600;48.378;9.948;2023-05-07T09:02:18;9.75;;;6.85;;
77495;SDS011;66600;48.378;9.948;2023-05-07T09:04:44;8.30;;;5.88;;
77495;SDS011;66600;48.378;9.948;2023-05-07T09:07:09;7.57;;;5.60;;
77495;SDS011;66600;48.378;9.948;2023-05-07T09:09:35;6.53;;;5.55;;
77495;SDS011;66600;48.378;9.948;2023-05-07T09:12:00;7.63;;;6.45;;
77495;SDS011;66600;48.378;9.948;2023-05-07T09:14:27;8.13;;;6.57;;
77495;SDS011;66600;48.378;9.948;2023-05-07T09:16:52;7.00;;;5.90;;
77495;SDS011;66600;48.378;9.948;2023-05-07T09:19:24;8.57;;;6.75;;
77495;SDS011;66600;48.378;9.948;2023-05-07T09:22:03;6.55;;;5.50;;
77495;SDS011;66600;48.378;9.948;2023-05-07T09:24:31;7.75;;;5.45;;
77495;SDS011;66600;48.378;9.948;2023-05-07T09:27:00;8.07;;;5.45;;
77495;SDS011;66600;48.378;9.948;2023-05-07T09:29:27;9.30;;;6.10;;
77495;SDS011;66600;48.378;9.948;2023-05-07T09:32:00;7.25;;;5.95;;
77495;SDS011;66600;48.378;9.948;2023-05-07T09:34:26;6.40;;;4.53;;
77495;SDS011;66600;48.378;9.948;2023-05-07T09:36:51;6.25;;;4.88;;
77495;SDS011;66600;48.378;9.948;2023-05-07T09:39:16;8.30;;;5.72;;
77495;SDS011;66600;48.378;9.948;2023-05-07T09:41:45;9.35;;;5.57;;
77495;SDS011;66600;48.378;9.948;2023-05-07T09:44:12;9.75;;;5.45;;
77495;SDS011;66600;48.378;9.948;2023-05-07T09:46:39;7.75;;;5.70;;
77495;SDS011;66600;48.378;9.948;2023-05-07T09:49:07;6.68;;;5.45;;
77495;SDS011;66600;48.378;9.948;2023-05-07T09:51:49;5.90;;;4.38;;
77495;SDS011;66600;48.378;9.948;2023-05-07T09:54:15;5.60;;;4.05;;
77495;SDS011;66600;48.378;9.948;2023-05-07T09:56:45;8.15;;;5.40;;
77495;SDS011;66600;48.378;9.948;2023-05-07T10:01:41;7.13;;;6.07;;
77495;SDS011;66600;48.378;9.948;2023-05-07T10:04:07;6.65;;;5.00;;
77495;SDS011;66600;48.378;9.948;2023-05-07T10:06:34;6.18;;;4.65;;
77495;SDS011;66600;48.378;9.948;2023-05-07T10:09:00;5.68;;;3.92;;
77495;SDS011;66600;48.378;9.948;2023-05-07T10:11:27;7.35;;;5.32;;
77495;SDS011;66600;48.378;9.948;2023-05-07T10:13:53;7.55;;;5.20;;
77495;SDS011;66600;48.378;9.948;2023-05-07T10:16:19;5.45;;;3.83;;
77495;SDS011;66600;48.378;9.948;2023-05-07T10:18:46;5.65;;;3.83;;
77495;SDS011;66600;48.378;9.948;2023-05-07T10:21:19;7.35;;;5.57;;
77495;SDS011;66600;48.378;9.948;2023-05-07T10:24:09;4.45;;;3.40;;
77495;SDS011;66600;48.378;9.948;2023-05-07T10:26:54;3.70;;;3.20;;
77495;SDS011;66600;48.378;9.948;2023-05-07T10:34:55;3.90;;;3.30;;
77495;SDS011;66600;48.378;9.948;2023-05-07T10:37:23;5.10;;;2.70;;
77495;SDS011;66600;48.378;9.948;2023-05-07T10:39:49;4.22;;;3.10;;
77495;SDS011;66600;48.378;9.948;2023-05-07T10:42:15;5.97;;;3.70;;
77495;SDS011;66600;48.378;9.948;2023-05-07T10:44:41;5.60;;;2.60;;
77495;SDS011;66600;48.378;9.948;2023-05-07T10:47:06;5.18;;;3.40;;
77495;SDS011;66600;48.378;9.948;2023-05-07T10:49:36;5.03;;;3.40;;
77495;SDS011;66600;48.378;9.948;2023-05-07T10:52:18;5.50;;;3.83;;
77495;SDS011;66600;48.378;9.948;2023-05-07T10:55:18;4.45;;;3.20;;
77495;SDS011;66600;48.378;9.948;2023-05-07T10:57:40;3.58;;;3.08;;
77495;SDS011;66600;48.378;9.948;2023-05-07T11:00:48;3.60;;;2.72;;
77495;SDS011;66600;48.378;9.948;2023-05-07T11:05:29;5.28;;;3.72;;
77495;SDS011;66600;48.378;9.948;2023-05-07T11:07:57;5.18;;;3.40;;
77495;SDS011;66600;48.378;9.948;2023-05-07T11:10:23;4.40;;;3.75;;
77495;SDS011;66600;48.378;9.948;2023-05-07T11:13:08;5.07;;;3.60;;
77495;SDS011;66600;48.378;9.948;2023-05-07T11:15:35;6.55;;;4.10;;
77495;SDS011;66600;48.378;9.948;2023-05-07T11:18:04;5.38;;;3.90;;
77495;SDS011;66600;48.378;9.948;2023-05-07T11:20:46;5.22;;;3.05;;
77495;SDS011;66600;48.378;9.948;2023-05-07T11:26:00;5.93;;;3.83;;
77495;SDS011;66600;48.378;9.948;2023-05-07T11:28:28;7.43;;;4.10;;
77495;SDS011;66600;48.378;9.948;2023-05-07T11:30:55;4.10;;;3.10;;
77495;SDS011;66600;48.378;9.948;2023-05-07T11:33:21;5.60;;;3.30;;
77495;SDS011;66600;48.378;9.948;2023-05-07T11:35:47;5.35;;;3.28;;
77495;SDS011;66600;48.378;9.948;2023-05-07T11:38:13;6.00;;;3.70;;
77495;SDS011;66600;48.378;9.948;2023-05-07T11:40:57;5.85;;;3.85;;
77495;SDS011;66600;48.378;9.948;2023-05-07T11:43:25;4.50;;;3.47;;
77495;SDS011;66600;48.378;9.948;2023-05-07T11:45:51;4.93;;;3.70;;
77495;SDS011;66600;48.378;9.948;2023-05-07T11:48:16;4.47;;;3.28;;
77495;SDS011;66600;48.378;9.948;2023-05-07T11:50:52;5.25;;;3.33;;
77495;SDS011;66600;48.378;9.948;2023-05-07T11:53:19;4.82;;;3.42;;
77495;SDS011;66600;48.378;9.948;2023-05-07T11:55:45;4.43;;;3.70;;
77495;SDS011;66600;48.378;9.948;2023-05-07T11:58:12;5.25;;;3.60;;
77495;SDS011;66600;48.378;9.948;2023-05-07T12:00:37;5.25;;;3.30;;
77495;SDS011;66600;48.378;9.948;2023-05-07T12:03:06;5.05;;;3.28;;
77495;SDS011;66600;48.378;9.948;2023-05-07T12:05:31;4.43;;;3.63;;
77495;SDS011;66600;48.378;9.948;2023-05-07T12:07:57;5.05;;;3.50;;
77495;SDS011;66600;48.378;9.948;2023-05-07T12:10:22;4.60;;;3.20;;
77495;SDS011;66600;48.378;9.948;2023-05-07T12:12:49;4.47;;;3.20;;
77495;SDS011;66600;48.378;9.948;2023-05-07T12:15:22;4.55;;;3.08;;
77495;SDS011;66600;48.378;9.948;2023-05-07T12:17:48;4.45;;;3.08;;
77495;SDS011;66600;48.378;9.948;2023-05-07T12:20:13;4.68;;;3.50;;
77495;SDS011;66600;48.378;9.948;2023-05-07T12:22:40;5.57;;;3.40;;
77495;SDS011;66600;48.378;9.948;2023-05-07T12:25:06;4.70;;;3.58;;
77495;SDS011;66600;48.378;9.948;2023-05-07T12:27:31;5.53;;;3.50;;
77495;SDS011;66600;48.378;9.948;2023-05-07T12:29:57;6.00;;;3.72;;
77495;SDS011;66600;48.378;9.948;2023-05-07T12:32:23;5.65;;;3.70;;
77495;SDS011;66600;48.378;9.948;2023-05-07T12:34:51;5.85;;;3.83;;
77495;SDS011;66600;48.378;9.948;2023-05-07T12:37:17;7.13;;;3.22;;
77495;SDS011;66600;48.378;9.948;2023-05-07T12:39:49;4.93;;;3.20;;
77495;SDS011;66600;48.378;9.948;2023-05-07T12:42:16;3.40;;;2.83;;
77495;SDS011;66600;48.378;9.948;2023-05-07T12:44:45;4.53;;;3.20;;
77495;SDS011;66600;48.378;9.948;2023-05-07T12:47:11;4.03;;;3.20;;
77495;SDS011;66600;48.378;9.948;2023-05-07T12:49:37;4.15;;;3.22;;
77495;SDS011;66600;48.378;9.948;2023-05-07T12:52:03;3.85;;;2.80;;
77495;SDS011;66600;48.378;9.948;2023-05-07T12:54:30;3.65;;;2.95;;
77495;SDS011;66600;48.378;9.948;2023-05-07T12:57:00;4.15;;;3.00;;
77495;SDS011;66600;48.378;9.948;2023-05-07T12:59:35;3.78;;;2.75;;
77495;SDS011;66600;48.378;9.948;2023-05-07T13:02:02;4.88;;;3.75;;
77495;SDS011;66600;48.378;9.948;2023-05-07T13:04:27;5.68;;;3.72;;
77495;SDS011;66600;48.378;9.948;2023-05-07T13:06:53;4.05;;;2.75;;
77495;SDS011;66600;48.378;9.948;2023-05-07T13:09:18;4.88;;;2.70;;
77495;SDS011;66600;48.378;9.948;2023-05-07T13:11:43;3.05;;;2.60;;
77495;SDS011;66600;48.378;9.948;2023-05-07T13:14:08;3.17;;;2.63;;
77495;SDS011;66600;48.378;9.948;2023-05-07T13:16:34;4.28;;;2.72;;
77495;SDS011;66600;48.378;9.948;2023-05-07T13:18:59;4.53;;;3.00;;
77495;SDS011;66600;48.378;9.948;2023-05-07T13:21:24;4.72;;;2.40;;
77495;SDS011;66600;48.378;9.948;2023-05-07T13:23:50;3.50;;;2.50;;
77495;SDS011;66600;48.378;9.948;2023-05-07T13:26:15;3.63;;;2.67;;
77495;SDS011;66600;48.378;9.948;2023-05-07T13:28:41;8.38;;;2.63;;
77495;SDS011;66600;48.378;9.948;2023-05-07T13:31:06;3.50;;;2.70;;
77495;SDS011;66600;48.378;9.948;2023-05-07T13:33:32;4.18;;;2.50;;
77495;SDS011;66600;48.378;9.948;2023-05-07T13:35:57;4.45;;;2.47;;
77495;SDS011;66600;48.378;9.948;2023-05-07T13:38:25;4.53;;;2.63;;
77495;SDS011;66600;48.378;9.948;2023-05-07T13:40:50;3.75;;;2.50;;
77495;SDS011;66600;48.378;9.948;2023-05-07T13:43:16;4.63;;;2.40;;
77495;SDS011;66600;48.378;9.948;2023-05-07T13:45:42;5.53;;;2.40;;
77495;SDS011;66600;48.378;9.948;2023-05-07T13:48:07;3.75;;;2.45;;
77495;SDS011;66600;48.378;9.948;2023-05-07T13:50:33;3.33;;;2.90;;
77495;SDS011;66600;48.378;9.948;2023-05-07T13:52:58;3.80;;;2.60;;
77495;SDS011;66600;48.378;9.948;2023-05-07T13:55:24;4.32;;;2.38;;
77495;SDS011;66600;48.378;9.948;2023-05-07T13:57:57;3.30;;;2.45;;
77495;SDS011;66600;48.378;9.948;2023-05-07T14:00:26;2.78;;;2.38;;
77495;SDS011;66600;48.378;9.948;2023-05-07T14:02:53;3.33;;;2.50;;
77495;SDS011;66600;48.378;9.948;2023-05-07T14:05:18;5.28;;;3.45;;
77495;SDS011;66600;48.378;9.948;2023-05-07T14:07:44;7.30;;;3.97;;
77495;SDS011;66600;48.378;9.948;2023-05-07T14:10:10;3.65;;;2.70;;
77495;SDS011;66600;48.378;9.948;2023-05-07T14:12:36;2.70;;;2.20;;
77495;SDS011;66600;48.378;9.948;2023-05-07T14:15:02;3.28;;;2.30;;
77495;SDS011;66600;48.378;9.948;2023-05-07T14:17:27;3.28;;;2.30;;
77495;SDS011;66600;48.378;9.948;2023-05-07T14:19:53;4.55;;;3.00;;
77495;SDS011;66600;48.378;9.948;2023-05-07T14:22:20;3.47;;;2.42;;
77495;SDS011;66600;48.378;9.948;2023-05-07T14:24:46;3.60;;;2.17;;
77495;SDS011;66600;48.378;9.948;2023-05-07T14:27:11;3.88;;;2.30;;
77495;SDS011;66600;48.378;9.948;2023-05-07T14:29:37;3.25;;;2.17;;
77495;SDS011;66600;48.378;9.948;2023-05-07T14:32:02;3.85;;;2.90;;
77495;SDS011;66600;48.378;9.948;2023-05-07T14:34:28;5.47;;;2.70;;
77495;SDS011;66600;48.378;9.948;2023-05-07T14:36:54;6.43;;;2.80;;
77495;SDS011;66600;48.378;9.948;2023-05-07T14:39:20;3.63;;;2.42;;
77495;SDS011;66600;48.378;9.948;2023-05-07T14:41:45;3.75;;;2.17;;
77495;SDS011;66600;48.378;9.948;2023-05-07T14:44:10;3.78;;;2.20;;
77495;SDS011;66600;48.378;9.948;2023-05-07T14:46:36;3.47;;;2.15;;
77495;SDS011;66600;48.378;9.948;2023-05-07T14:49:02;3.30;;;2.00;;
77495;SDS011;66600;48.378;9.948;2023-05-07T14:51:27;3.33;;;2.30;;
77495;SDS011;66600;48.378;9.948;2023-05-07T14:53:53;3.75;;;2.40;;
77495;SDS011;66600;48.378;9.948;2023-05-07T14:56:19;4.40;;;2.38;;